createdAt,value
2022-10-06T00:01:31.862Z,3.83
2022-10-06T00:03:58.432Z,3.37
2022-10-06T00:06:24.884Z,3.77
2022-10-06T00:08:51.276Z,3.60
2022-10-06T00:11:17.814Z,4.10
2022-10-06T00:13:44.706Z,3.17
2022-10-06T00:16:17.390Z,3.60
2022-10-06T00:18:44.078Z,3.27
2022-10-06T00:21:10.569Z,3.53
2022-10-06T00:23:37.092Z,3.07
2022-10-06T00:26:03.950Z,3.23
2022-10-06T00:28:30.597Z,3.30
2022-10-06T00:31:00.616Z,3.13
2022-10-06T00:33:27.156Z,3.13
2022-10-06T00:35:57.911Z,3.40
2022-10-06T00:38:24.856Z,3.60
2022-10-06T00:40:51.918Z,3.43
2022-10-06T00:43:36.742Z,3.30
2022-10-06T00:46:03.251Z,3.27
2022-10-06T00:48:30.871Z,3.50
2022-10-06T00:50:58.130Z,3.60
2022-10-06T00:53:25.862Z,3.20
2022-10-06T00:55:54.359Z,3.40
2022-10-06T00:58:21.246Z,3.43
2022-10-06T01:00:49.337Z,3.33
2022-10-06T01:03:18.190Z,3.10
2022-10-06T01:05:47.169Z,3.77
2022-10-06T01:08:14.082Z,3.23
2022-10-06T01:10:42.313Z,3.20
2022-10-06T01:13:10.699Z,3.10
2022-10-06T01:15:41.184Z,3.40
2022-10-06T01:18:14.011Z,3.10
2022-10-06T01:20:56.721Z,3.33
2022-10-06T01:23:23.398Z,3.30
2022-10-06T01:25:50.655Z,3.23
2022-10-06T01:28:17.319Z,3.23
2022-10-06T01:30:46.388Z,3.20
2022-10-06T01:33:13.938Z,3.60
2022-10-06T01:35:41.180Z,3.70
2022-10-06T01:38:07.642Z,4.27
2022-10-06T01:40:34.924Z,3.47
2022-10-06T01:43:01.973Z,3.37
2022-10-06T01:45:29.004Z,3.30
2022-10-06T01:47:55.522Z,3.33
2022-10-06T01:50:22.256Z,3.50
2022-10-06T01:52:48.688Z,3.30
2022-10-06T01:55:15.228Z,3.30
2022-10-06T01:57:42.861Z,3.30
2022-10-06T02:00:10.964Z,3.37
2022-10-06T02:02:41.652Z,3.30
2022-10-06T02:05:08.510Z,3.47
2022-10-06T02:07:38.343Z,3.20
2022-10-06T02:10:06.083Z,3.30
2022-10-06T02:12:35.041Z,3.60
2022-10-06T02:15:01.827Z,3.17
2022-10-06T02:17:29.390Z,3.30
2022-10-06T02:19:56.116Z,3.13
2022-10-06T02:22:22.651Z,3.03
2022-10-06T02:24:49.333Z,3.40
2022-10-06T02:27:15.891Z,3.20
2022-10-06T02:29:42.611Z,3.77
2022-10-06T02:32:09.067Z,3.70
2022-10-06T02:34:35.530Z,3.40
2022-10-06T02:37:02.147Z,3.23
2022-10-06T02:39:29.661Z,3.50
2022-10-06T02:41:56.155Z,3.07
2022-10-06T02:44:25.123Z,3.40
2022-10-06T02:46:53.728Z,3.60
2022-10-06T02:49:20.841Z,3.50
2022-10-06T02:51:47.705Z,3.17
2022-10-06T02:54:14.891Z,3.90
2022-10-06T02:56:41.370Z,3.60
2022-10-06T02:59:07.795Z,2.80
2022-10-06T03:01:35.898Z,3.37
2022-10-06T03:04:11.641Z,3.33
2022-10-06T03:06:40.004Z,3.37
2022-10-06T03:09:15.081Z,3.30
2022-10-06T03:11:43.720Z,3.10
2022-10-06T03:14:21.617Z,3.33
2022-10-06T03:16:51.595Z,3.20
2022-10-06T03:19:24.810Z,3.10
2022-10-06T03:21:51.372Z,3.17
2022-10-06T03:24:17.828Z,2.90
2022-10-06T03:26:48.796Z,3.37
2022-10-06T03:29:17.230Z,3.20
2022-10-06T03:31:49.431Z,3.17
2022-10-06T03:34:16.102Z,3.33
2022-10-06T03:36:44.323Z,2.70
2022-10-06T03:39:11.538Z,3.30
2022-10-06T03:41:39.277Z,3.10
2022-10-06T03:44:08.670Z,2.90
2022-10-06T03:46:37.615Z,3.20
2022-10-06T03:49:06.834Z,3.43
2022-10-06T03:51:34.460Z,3.03
2022-10-06T03:54:01.598Z,3.27
2022-10-06T03:56:34.378Z,3.40
2022-10-06T03:59:11.215Z,3.07
2022-10-06T04:01:40.770Z,3.00
2022-10-06T04:04:08.848Z,3.00
2022-10-06T04:06:37.131Z,3.10
2022-10-06T04:09:07.240Z,3.20
2022-10-06T04:11:37.638Z,2.90
2022-10-06T04:14:06.672Z,3.10
2022-10-06T04:16:34.896Z,2.97
2022-10-06T04:19:04.256Z,2.87
2022-10-06T04:21:33.440Z,3.10
2022-10-06T04:24:00.356Z,3.30
2022-10-06T04:26:28.195Z,3.20
2022-10-06T04:28:55.317Z,3.17
2022-10-06T04:31:23.407Z,3.23
2022-10-06T04:33:53.944Z,3.47
2022-10-06T04:36:23.050Z,3.23
2022-10-06T04:38:58.840Z,3.03
2022-10-06T04:41:28.761Z,3.10
2022-10-06T04:43:56.465Z,3.50
2022-10-06T04:46:42.017Z,2.67
2022-10-06T04:49:14.634Z,3.03
2022-10-06T04:51:41.501Z,2.93
2022-10-06T04:54:08.073Z,3.20
2022-10-06T04:56:35.169Z,2.80
2022-10-06T04:59:03.883Z,2.80
2022-10-06T05:01:35.614Z,3.23
2022-10-06T05:04:06.206Z,3.30
2022-10-06T05:06:35.696Z,3.23
2022-10-06T05:09:06.543Z,3.00
2022-10-06T05:11:34.308Z,3.00
2022-10-06T05:14:02.462Z,3.10
2022-10-06T05:16:31.179Z,3.50
2022-10-06T05:18:58.803Z,3.17
2022-10-06T05:21:27.388Z,3.17
2022-10-06T05:23:55.236Z,2.80
2022-10-06T05:26:23.345Z,3.20
2022-10-06T05:28:50.182Z,3.73
2022-10-06T05:31:19.645Z,3.03
2022-10-06T05:33:46.664Z,3.10
2022-10-06T05:36:15.783Z,3.30
2022-10-06T05:38:43.890Z,3.20
2022-10-06T05:41:21.062Z,3.07
2022-10-06T05:43:48.807Z,2.93
2022-10-06T05:46:19.326Z,2.87
2022-10-06T05:48:47.880Z,2.73
2022-10-06T05:51:15.828Z,3.00
2022-10-06T05:53:43.081Z,2.60
2022-10-06T05:56:16.567Z,3.10
2022-10-06T05:58:44.593Z,2.80
2022-10-06T06:01:20.724Z,2.60
2022-10-06T06:03:52.569Z,2.50
2022-10-06T06:06:22.178Z,2.60
2022-10-06T06:08:57.389Z,2.50
2022-10-06T06:11:27.852Z,2.47
2022-10-06T06:14:00.151Z,2.30
2022-10-06T06:16:28.652Z,2.13
2022-10-06T06:18:55.150Z,2.03
2022-10-06T06:21:21.779Z,2.03
2022-10-06T06:23:48.820Z,1.93
2022-10-06T06:26:17.438Z,1.80
2022-10-06T06:28:47.726Z,2.10
2022-10-06T06:31:35.514Z,1.70
2022-10-06T06:34:04.694Z,1.90
2022-10-06T06:36:35.778Z,1.30
2022-10-06T06:39:06.205Z,1.40
2022-10-06T06:41:37.907Z,1.30
2022-10-06T06:44:19.008Z,1.20
2022-10-06T06:46:52.236Z,1.30
2022-10-06T06:49:20.660Z,1.00
2022-10-06T06:51:54.098Z,0.93
2022-10-06T06:54:22.944Z,0.93
2022-10-06T06:56:55.243Z,0.70
2022-10-06T06:59:22.036Z,0.73
2022-10-06T07:01:50.815Z,0.60
2022-10-06T07:04:20.110Z,0.60
2022-10-06T07:06:53.415Z,0.70
2022-10-06T07:09:20.953Z,0.50
2022-10-06T07:11:47.987Z,0.50
2022-10-06T07:14:18.566Z,0.33
2022-10-06T07:17:06.799Z,0.53
2022-10-06T07:19:43.381Z,0.40
2022-10-06T07:22:30.577Z,0.50
2022-10-06T07:25:09.941Z,0.60
2022-10-06T07:27:43.758Z,0.60
2022-10-06T07:30:12.848Z,0.60
2022-10-06T07:32:39.392Z,0.70
2022-10-06T07:35:06.535Z,0.50
2022-10-06T07:37:35.171Z,0.50
2022-10-06T07:40:02.188Z,0.70
2022-10-06T07:42:29.790Z,0.70
2022-10-06T07:45:28.667Z,0.70
2022-10-06T07:47:58.408Z,0.73
2022-10-06T07:50:25.985Z,0.50
2022-10-06T07:52:52.897Z,0.60
2022-10-06T07:55:19.750Z,0.50
2022-10-06T07:58:11.282Z,0.70
2022-10-06T08:00:37.765Z,0.60
2022-10-06T08:03:04.333Z,0.70
2022-10-06T08:05:32.336Z,0.80
2022-10-06T08:07:58.820Z,0.80
2022-10-06T08:10:25.362Z,0.73
2022-10-06T08:12:51.748Z,0.80
2022-10-06T08:15:18.393Z,0.70
2022-10-06T08:17:45.003Z,0.80
2022-10-06T08:20:12.594Z,0.60
2022-10-06T08:22:40.114Z,0.77
2022-10-06T08:25:09.416Z,0.57
2022-10-06T08:27:36.852Z,0.80
2022-10-06T08:30:04.334Z,0.80
2022-10-06T08:32:32.165Z,0.53
2022-10-06T08:34:58.993Z,0.80
2022-10-06T08:37:27.437Z,0.50
2022-10-06T08:39:54.346Z,0.53
2022-10-06T08:42:25.458Z,0.77
2022-10-06T08:44:56.879Z,0.57
2022-10-06T08:47:24.572Z,0.70
2022-10-06T08:49:52.785Z,0.77
2022-10-06T08:52:34.508Z,0.77
2022-10-06T08:55:07.078Z,1.03
2022-10-06T08:57:33.707Z,0.50
2022-10-06T09:00:00.311Z,0.70
2022-10-06T09:02:39.214Z,0.60
2022-10-06T09:05:06.348Z,0.57
2022-10-06T09:07:40.630Z,0.80
2022-10-06T09:10:25.636Z,0.80
2022-10-06T09:12:57.679Z,1.10
2022-10-06T09:15:24.083Z,0.63
2022-10-06T09:17:54.278Z,0.80
2022-10-06T09:20:34.258Z,0.80
2022-10-06T09:23:01.874Z,0.70
2022-10-06T09:25:29.863Z,0.80
2022-10-06T09:27:57.699Z,0.90
2022-10-06T09:30:24.523Z,0.60
2022-10-06T09:32:54.532Z,0.80
2022-10-06T09:35:22.132Z,1.00
2022-10-06T09:37:53.652Z,0.83
2022-10-06T09:40:38.862Z,0.70
2022-10-06T09:43:16.650Z,0.90
2022-10-06T09:45:43.088Z,1.00
2022-10-06T09:48:27.496Z,0.90
2022-10-06T09:51:20.136Z,1.10
2022-10-06T09:54:03.954Z,1.10
2022-10-06T09:56:33.090Z,0.90
2022-10-06T09:59:00.486Z,0.90
2022-10-06T10:01:27.696Z,1.37
2022-10-06T10:04:19.534Z,1.33
2022-10-06T10:06:41.884Z,1.33
2022-10-06T10:09:21.328Z,1.00
2022-10-06T10:12:20.967Z,0.90
2022-10-06T10:14:47.586Z,1.33
2022-10-06T10:17:19.173Z,1.47
2022-10-06T10:19:52.943Z,1.30
2022-10-06T10:22:39.658Z,1.10
2022-10-06T10:25:13.846Z,1.23
2022-10-06T10:27:53.714Z,0.97
2022-10-06T10:30:20.344Z,1.20
2022-10-06T10:32:54.265Z,1.70
2022-10-06T10:35:29.035Z,1.20
2022-10-06T10:38:05.061Z,1.10
2022-10-06T10:40:51.960Z,1.33
2022-10-06T10:43:37.124Z,1.30
2022-10-06T10:46:18.188Z,0.90
2022-10-06T10:48:44.586Z,1.20
2022-10-06T10:51:14.005Z,1.30
2022-10-06T10:53:47.204Z,1.30
2022-10-06T10:56:16.182Z,1.10
2022-10-06T10:58:43.215Z,1.00
2022-10-06T11:01:25.637Z,0.90
2022-10-06T11:03:56.709Z,1.27
2022-10-06T11:06:29.399Z,1.33
2022-10-06T11:09:12.264Z,1.10
2022-10-06T11:11:38.740Z,0.80
2022-10-06T11:14:09.482Z,1.10
2022-10-06T11:16:44.749Z,1.20
2022-10-06T11:19:11.220Z,1.10
2022-10-06T11:21:50.688Z,2.00
2022-10-06T11:24:17.203Z,3.30
2022-10-06T11:27:08.279Z,1.90
2022-10-06T11:29:37.821Z,2.53
2022-10-06T11:32:22.580Z,1.87
2022-10-06T11:34:52.540Z,1.30
2022-10-06T11:37:57.520Z,1.10
2022-10-06T11:40:33.077Z,0.90
2022-10-06T11:43:09.481Z,0.93
2022-10-06T11:45:55.386Z,1.10
2022-10-06T11:48:29.841Z,0.90
2022-10-06T11:50:57.454Z,0.83
2022-10-06T11:53:39.727Z,0.90
2022-10-06T11:56:18.266Z,1.00
2022-10-06T11:58:50.685Z,1.10
2022-10-06T12:01:39.365Z,0.93
2022-10-06T12:04:08.875Z,1.43
2022-10-06T12:06:44.834Z,1.67
2022-10-06T12:09:31.571Z,2.33
2022-10-06T12:12:07.262Z,1.10
2022-10-06T12:17:58.771Z,1.10
2022-10-06T12:20:27.912Z,1.00
2022-10-06T12:22:59.021Z,1.17
2022-10-06T12:25:31.211Z,1.30
2022-10-06T12:28:16.774Z,1.23
2022-10-06T12:30:56.157Z,1.10
2022-10-06T12:33:34.309Z,1.20
2022-10-06T12:36:01.904Z,0.90
2022-10-06T12:38:31.300Z,4.37
2022-10-06T12:40:57.836Z,1.27
2022-10-06T12:43:24.209Z,1.10
2022-10-06T12:45:50.737Z,0.93
2022-10-06T12:48:25.488Z,1.10
2022-10-06T12:50:54.779Z,1.10
2022-10-06T12:53:24.470Z,0.90
2022-10-06T12:55:56.806Z,0.70
2022-10-06T12:58:31.042Z,1.33
2022-10-06T13:01:11.882Z,1.00
2022-10-06T13:03:38.738Z,1.10
2022-10-06T13:06:06.742Z,1.10
2022-10-06T13:08:37.242Z,0.90
2022-10-06T13:11:16.085Z,0.90
2022-10-06T13:13:46.814Z,0.90
2022-10-06T13:16:14.774Z,0.90
2022-10-06T13:18:41.660Z,0.83
2022-10-06T13:21:12.803Z,1.53
2022-10-06T13:23:39.556Z,0.80
2022-10-06T13:26:21.454Z,1.27
2022-10-06T13:28:52.143Z,1.30
2022-10-06T13:31:18.667Z,0.73
2022-10-06T13:33:45.638Z,1.27
2022-10-06T13:36:12.817Z,0.70
2022-10-06T13:38:39.895Z,0.67
2022-10-06T13:41:06.441Z,1.57
2022-10-06T13:43:37.416Z,1.20
2022-10-06T13:46:14.350Z,1.43
2022-10-06T13:48:55.227Z,1.10
2022-10-06T13:51:24.300Z,2.17
2022-10-06T13:53:51.917Z,1.40
2022-10-06T13:56:41.688Z,1.93
2022-10-06T13:59:15.926Z,1.73
2022-10-06T14:01:42.837Z,1.63
2022-10-06T14:04:14.261Z,1.57
2022-10-06T14:06:54.920Z,0.97
2022-10-06T14:09:29.488Z,1.60
2022-10-06T14:12:06.864Z,1.13
2022-10-06T14:14:33.341Z,3.97
2022-10-06T14:16:59.857Z,2.80
2022-10-06T14:19:36.616Z,1.40
2022-10-06T14:22:04.293Z,1.07
2022-10-06T14:24:34.103Z,1.70
2022-10-06T14:27:01.643Z,2.63
2022-10-06T14:29:28.120Z,1.37
2022-10-06T14:31:54.770Z,1.63
2022-10-06T14:34:22.068Z,1.90
2022-10-06T14:36:53.573Z,1.30
2022-10-06T14:39:19.999Z,1.13
2022-10-06T14:41:46.557Z,1.03
2022-10-06T14:44:15.130Z,1.73
2022-10-06T14:46:43.215Z,1.40
2022-10-06T14:49:13.485Z,1.00
2022-10-06T14:51:40.593Z,1.20
2022-10-06T14:54:07.880Z,0.90
2022-10-06T14:56:34.939Z,1.03
2022-10-06T14:59:04.708Z,1.20
2022-10-06T15:01:33.273Z,1.40
2022-10-06T15:04:07.544Z,1.20
2022-10-06T15:06:52.889Z,1.00
2022-10-06T15:09:19.347Z,1.10
2022-10-06T15:11:45.907Z,1.10
2022-10-06T15:14:12.645Z,0.90
2022-10-06T15:16:42.153Z,1.00
2022-10-06T15:19:09.132Z,1.07
2022-10-06T15:21:35.618Z,1.27
2022-10-06T15:24:03.036Z,0.90
2022-10-06T15:26:48.460Z,1.00
2022-10-06T15:29:15.285Z,0.97
2022-10-06T15:31:45.733Z,0.83
2022-10-06T15:34:13.372Z,1.10
2022-10-06T15:36:41.031Z,1.10
2022-10-06T15:39:08.579Z,0.90
2022-10-06T15:41:35.799Z,0.90
2022-10-06T15:44:02.335Z,0.97
2022-10-06T15:46:30.310Z,0.80
2022-10-06T15:49:04.464Z,0.87
2022-10-06T15:51:32.246Z,1.47
2022-10-06T15:53:58.764Z,0.83
2022-10-06T15:56:25.866Z,1.03
2022-10-06T15:58:52.368Z,1.13
2022-10-06T16:01:26.192Z,1.07
2022-10-06T16:03:53.444Z,1.13
2022-10-06T16:06:30.188Z,0.97
2022-10-06T16:08:56.671Z,1.10
2022-10-06T16:11:23.150Z,1.10
2022-10-06T16:13:49.629Z,1.23
2022-10-06T16:16:16.088Z,1.03
2022-10-06T16:18:42.554Z,1.10
2022-10-06T16:21:08.957Z,0.90
2022-10-06T16:23:35.441Z,1.20
2022-10-06T16:26:02.089Z,1.03
2022-10-06T16:28:28.570Z,1.00
2022-10-06T16:30:55.402Z,1.30
2022-10-06T16:33:21.877Z,1.60
2022-10-06T16:35:55.696Z,1.90
2022-10-06T16:38:22.304Z,2.00
2022-10-06T16:40:56.793Z,1.70
2022-10-06T16:43:30.103Z,1.93
2022-10-06T16:46:01.824Z,1.97
2022-10-06T16:48:32.860Z,1.73
2022-10-06T16:51:05.589Z,1.70
2022-10-06T16:53:36.173Z,1.70
2022-10-06T16:56:03.131Z,1.97
2022-10-06T16:58:35.092Z,1.50
2022-10-06T17:01:01.588Z,1.83
2022-10-06T17:03:28.131Z,1.67
2022-10-06T17:05:54.595Z,1.60
2022-10-06T17:08:23.899Z,1.57
2022-10-06T17:11:09.155Z,1.70
2022-10-06T17:13:36.771Z,2.07
2022-10-06T17:16:07.460Z,2.63
2022-10-06T17:18:34.523Z,3.27
2022-10-06T17:21:01.874Z,3.00
2022-10-06T17:23:28.767Z,3.30
2022-10-06T17:26:02.098Z,2.30
2022-10-06T17:28:28.743Z,1.93
2022-10-06T17:30:59.470Z,2.17
2022-10-06T17:33:35.860Z,1.77
2022-10-06T17:36:03.967Z,1.80
2022-10-06T17:38:30.898Z,1.40
2022-10-06T17:40:57.328Z,1.47
2022-10-06T17:43:24.098Z,1.43
2022-10-06T17:45:51.500Z,1.10
2022-10-06T17:48:18.002Z,1.40
2022-10-06T17:50:55.925Z,1.60
2022-10-06T17:53:23.051Z,1.57
2022-10-06T17:55:50.971Z,1.10
2022-10-06T17:58:18.829Z,1.47
2022-10-06T18:00:45.767Z,1.27
2022-10-06T18:03:12.285Z,1.57
2022-10-06T18:05:39.687Z,1.90
2022-10-06T18:08:08.764Z,1.30
2022-10-06T18:10:57.764Z,1.33
2022-10-06T18:13:26.136Z,1.37
2022-10-06T18:15:52.567Z,1.43
2022-10-06T18:18:25.194Z,1.40
2022-10-06T18:20:52.893Z,1.20
2022-10-06T18:23:19.443Z,1.40
2022-10-06T18:25:46.145Z,1.50
2022-10-06T18:28:12.850Z,1.47
2022-10-06T18:30:39.344Z,1.20
2022-10-06T18:36:15.399Z,1.57
2022-10-06T18:38:43.675Z,1.60
2022-10-06T18:41:15.257Z,1.90
2022-10-06T18:43:42.103Z,1.50
2022-10-06T18:46:28.550Z,1.47
2022-10-06T18:48:55.502Z,1.40
2022-10-06T18:51:30.155Z,1.60
2022-10-06T18:53:57.726Z,2.20
2022-10-06T18:56:26.146Z,1.87
2022-10-06T18:58:53.056Z,1.73
2022-10-06T19:01:19.744Z,1.87
2022-10-06T19:03:46.345Z,2.17
2022-10-06T19:06:12.804Z,1.70
2022-10-06T19:08:39.596Z,8.60
2022-10-06T19:11:25.280Z,5.70
2022-10-06T19:13:53.466Z,1.70
2022-10-06T19:16:20.170Z,1.97
2022-10-06T19:18:46.783Z,2.10
2022-10-06T19:21:13.645Z,1.50
2022-10-06T19:23:40.385Z,1.80
2022-10-06T19:26:08.153Z,1.90
2022-10-06T19:28:35.825Z,1.80
2022-10-06T19:31:04.392Z,2.10
2022-10-06T19:33:31.761Z,1.80
2022-10-06T19:35:59.192Z,2.00
2022-10-06T19:38:25.820Z,2.50
2022-10-06T19:40:52.436Z,2.20
2022-10-06T19:43:19.178Z,1.93
2022-10-06T19:45:56.004Z,2.00
2022-10-06T19:48:22.648Z,1.97
2022-10-06T19:50:49.114Z,1.60
2022-10-06T19:53:16.565Z,2.20
2022-10-06T19:55:43.554Z,1.77
2022-10-06T19:58:10.093Z,2.20
2022-10-06T20:00:36.686Z,1.93
2022-10-06T20:03:07.414Z,2.00
2022-10-06T20:05:35.310Z,2.27
2022-10-06T20:08:02.059Z,2.50
2022-10-06T20:10:28.521Z,2.37
2022-10-06T20:12:55.623Z,1.80
2022-10-06T20:15:22.659Z,1.90
2022-10-06T20:17:49.096Z,2.10
2022-10-06T20:20:15.571Z,1.60
2022-10-06T20:22:41.984Z,2.10
2022-10-06T20:25:08.562Z,2.00
2022-10-06T20:27:35.106Z,2.17
2022-10-06T20:30:02.318Z,2.20
2022-10-06T20:32:29.093Z,2.43
2022-10-06T20:34:55.556Z,2.17
2022-10-06T20:37:22.187Z,2.07
2022-10-06T20:40:07.391Z,2.43
2022-10-06T20:42:33.898Z,2.30
2022-10-06T20:45:00.328Z,2.23
2022-10-06T20:47:26.833Z,2.30
2022-10-06T20:49:55.254Z,2.10
2022-10-06T20:52:23.154Z,2.33
2022-10-06T20:54:49.566Z,2.10
2022-10-06T20:57:16.409Z,2.07
2022-10-06T20:59:45.253Z,2.37
2022-10-06T21:02:11.791Z,2.27
2022-10-06T21:04:40.204Z,2.63
2022-10-06T21:07:07.377Z,2.53
2022-10-06T21:09:34.121Z,2.90
2022-10-06T21:12:00.658Z,2.90
2022-10-06T21:14:27.087Z,2.40
2022-10-06T21:16:53.546Z,2.43
2022-10-06T21:19:20.221Z,2.90
2022-10-06T21:21:50.686Z,2.37
2022-10-06T21:24:17.412Z,2.60
2022-10-06T21:26:43.864Z,2.30
2022-10-06T21:29:12.962Z,2.60
2022-10-06T21:31:39.568Z,2.30
2022-10-06T21:34:06.200Z,3.07
2022-10-06T21:36:32.700Z,2.70
2022-10-06T21:39:00.483Z,2.60
2022-10-06T21:41:31.517Z,2.23
2022-10-06T21:44:02.753Z,2.70
2022-10-06T21:46:39.194Z,2.90
2022-10-06T21:49:07.186Z,2.67
2022-10-06T21:51:33.847Z,2.60
2022-10-06T21:54:00.745Z,2.80
2022-10-06T21:56:28.285Z,2.87
2022-10-06T21:58:55.855Z,2.63
2022-10-06T22:01:32.916Z,2.90
2022-10-06T22:04:03.217Z,2.70
2022-10-06T22:06:30.495Z,2.87
2022-10-06T22:08:57.433Z,2.93
2022-10-06T22:11:35.307Z,2.57
2022-10-06T22:14:03.099Z,2.40
2022-10-06T22:16:30.820Z,2.63
2022-10-06T22:18:57.610Z,2.90
2022-10-06T22:21:24.077Z,3.17
2022-10-06T22:23:54.436Z,2.73
2022-10-06T22:26:21.135Z,2.60
2022-10-06T22:28:48.337Z,3.40
2022-10-06T22:31:15.998Z,2.93
2022-10-06T22:33:43.134Z,2.83
2022-10-06T22:36:10.812Z,3.03
2022-10-06T22:38:37.365Z,2.90
2022-10-06T22:41:05.953Z,3.13
2022-10-06T22:43:32.913Z,2.87
2022-10-06T22:45:59.416Z,2.93
2022-10-06T22:48:26.284Z,3.10
2022-10-06T22:50:53.080Z,3.17
2022-10-06T22:53:20.495Z,3.00
2022-10-06T22:55:47.147Z,3.10
2022-10-06T22:58:14.659Z,3.00
2022-10-06T23:00:41.521Z,3.00
2022-10-06T23:03:09.204Z,2.80
2022-10-06T23:05:36.088Z,3.00
2022-10-06T23:08:03.035Z,3.13
2022-10-06T23:10:30.522Z,3.60
2022-10-06T23:12:58.181Z,3.63
2022-10-06T23:15:24.954Z,3.50
2022-10-06T23:17:51.617Z,3.57
2022-10-06T23:20:18.491Z,3.70
2022-10-06T23:22:45.201Z,3.67
2022-10-06T23:25:11.710Z,3.27
2022-10-06T23:27:38.217Z,3.37
2022-10-06T23:30:05.553Z,3.50
2022-10-06T23:32:32.658Z,3.37
2022-10-06T23:34:59.103Z,3.70
2022-10-06T23:37:25.604Z,3.73
2022-10-06T23:39:52.057Z,3.10
2022-10-06T23:42:18.548Z,3.80
2022-10-06T23:44:45.012Z,3.33
2022-10-06T23:47:11.453Z,3.30
2022-10-06T23:49:37.956Z,3.27
2022-10-06T23:52:04.457Z,3.60
2022-10-06T23:54:30.993Z,3.67
2022-10-06T23:56:57.423Z,3.47
2022-10-06T23:59:23.971Z,3.33
